Isleworth, United Kingdom
Current Conditions -  °F | °C
As of 6:20 AM on Tuesday 21 Oct 2014 (Local Time) from EGLL Reporting Station
Scattered Clouds Scattered Clouds  
Wind Chill: 57°   Ceiling: Unl
Heat Index: 57°   Visibility: 6mi
Dew Point: 54°   Wind: 16mph
Humidity: 88%   Direction: 210°SSW
Pressure: 29.59"   Gusts: NA
Location:  51.47°N, 0.35°W
Report Text: EGLL 210520Z 21014KT 9999 SCT014 SCT027 14/12 Q1002 TEMPO RA
Loading
Personal Weather Stations






























Interactive Weather Map New forecast layout! Learn more

10-Day Weather Forecast

Advertisements
Track Severe Weather on mobile